RJNY(METAR)
05/22 00:26
RJNY 211526Z 04007KT 9999 FEW010 SCT025 BKN090 18/14 Q1005 RMK
1CU010 3CU025 7AC090 A2970=
戻る
トップページへ戻る
IMOC Co,.Ltd.